Time;durP1;ratioP1;P1;durP2;ratioP2;P2;SDS_P1;SDS_P2;PMS_P1;PMS_P2;Temp;Humidity;BMP_temperature;BMP_pressure;BME280_temperature;BME280_humidity;BME280_pressure;Samples;Min_cycle;Max_cycle;Signal;HPM_P1;HPM_P2
2023/07/27 00:00:19;;;;;;;6.45;4.70;;;15.60;99.90;;;;;;4592598;19;20003;-25
2023/07/27 00:02:11;;;;;;;6.43;4.45;;;15.60;99.90;;;;;;4590887;19;20038;-25
2023/07/27 00:03:42;;;;;;;6.03;4.03;;;15.60;99.90;;;;;;4591214;19;20479;-25
2023/07/27 00:05:15;;;;;;;5.05;3.60;;;15.50;99.90;;;;;;4591016;19;20006;-26
2023/07/27 00:06:48;;;;;;;5.30;4.20;;;15.60;99.90;;;;;;4590988;19;20082;-26
2023/07/27 00:08:19;;;;;;;4.10;3.33;;;15.60;99.90;;;;;;4591720;19;20011;-24
2023/07/27 00:09:51;;;;;;;4.18;3.10;;;15.60;99.90;;;;;;4591013;19;20078;-25
2023/07/27 00:11:25;;;;;;;4.97;3.33;;;15.50;99.90;;;;;;4591082;19;20078;-25
2023/07/27 00:12:57;;;;;;;5.75;4.03;;;15.50;99.90;;;;;;4590894;19;20132;-25
2023/07/27 00:14:28;;;;;;;4.10;3.20;;;15.50;99.90;;;;;;4591124;19;20030;-25
2023/07/27 00:16:00;;;;;;;;;;;15.50;99.90;;;;;;4591934;19;20011;-24
2023/07/27 00:17:31;;;;;;;6.05;4.05;;;15.40;99.90;;;;;;4589573;19;19910;-26
2023/07/27 00:19:03;;;;;;;5.47;3.42;;;15.40;99.90;;;;;;4591221;19;20050;-25
2023/07/27 00:20:35;;;;;;;4.85;3.55;;;15.40;99.90;;;;;;4591449;19;20636;-25
2023/07/27 00:22:07;;;;;;;4.88;3.28;;;15.40;99.90;;;;;;4590827;19;20006;-26
2023/07/27 00:23:39;;;;;;;5.57;3.80;;;15.40;99.90;;;;;;4591032;19;20011;-25
2023/07/27 00:25:11;;;;;;;3.88;2.75;;;15.40;99.90;;;;;;4591341;19;20013;-23
2023/07/27 00:26:43;;;;;;;4.82;3.35;;;15.40;99.90;;;;;;4590552;19;20414;-26
2023/07/27 00:28:15;;;;;;;4.25;2.85;;;15.40;99.90;;;;;;4590685;19;20413;-25
2023/07/27 00:29:47;;;;;;;5.18;3.30;;;15.40;99.90;;;;;;4591000;19;20471;-25
2023/07/27 00:31:18;;;;;;;5.25;3.50;;;15.40;99.90;;;;;;4591131;19;20006;-25
2023/07/27 00:32:51;;;;;;;5.20;3.70;;;15.40;99.90;;;;;;4590559;19;20014;-25
2023/07/27 00:34:22;;;;;;;5.40;4.00;;;15.30;99.90;;;;;;4592591;19;20018;-25
2023/07/27 00:35:57;;;;;;;7.97;3.92;;;15.30;99.90;;;;;;4592760;19;20037;-25
2023/07/27 00:37:29;;;;;;;5.90;3.90;;;15.20;99.90;;;;;;4590846;19;20340;-25
2023/07/27 00:39:01;;;;;;;7.10;4.40;;;15.20;99.90;;;;;;4592259;19;20082;-26
2023/07/27 00:40:32;;;;;;;6.90;4.30;;;15.20;99.90;;;;;;4592698;19;20473;-25
2023/07/27 00:42:04;;;;;;;6.25;3.88;;;15.20;99.90;;;;;;4593147;19;20003;-25
2023/07/27 00:43:35;;;;;;;;;;;15.20;99.90;;;;;;4594167;19;20017;-25
2023/07/27 00:45:09;;;;;;;4.70;3.90;;;15.10;99.90;;;;;;4591833;19;19934;-25
2023/07/27 00:46:42;;;;;;;5.45;3.67;;;15.20;99.90;;;;;;4592973;19;20010;-25
2023/07/27 00:48:13;;;;;;;5.40;3.42;;;15.20;99.90;;;;;;4592943;19;20022;-24
2023/07/27 00:49:45;;;;;;;4.95;3.20;;;15.20;99.90;;;;;;4591828;19;20014;-24
2023/07/27 00:51:18;;;;;;;5.53;3.67;;;15.10;99.90;;;;;;4592084;19;20010;-25
2023/07/27 00:52:49;;;;;;;4.65;3.60;;;15.10;99.90;;;;;;4591244;19;20018;-25
2023/07/27 00:54:21;;;;;;;4.60;3.33;;;15.10;99.90;;;;;;4592704;19;20009;-24
2023/07/27 00:55:52;;;;;;;5.90;4.00;;;15.10;99.90;;;;;;4590970;19;20417;-24
2023/07/27 00:57:24;;;;;;;;;;;15.10;99.90;;;;;;4589740;19;20010;-26
2023/07/27 00:58:55;;;;;;;4.43;3.08;;;15.00;99.90;;;;;;4587865;19;19928;-24
2023/07/27 01:00:27;;;;;;;4.53;2.97;;;15.00;99.90;;;;;;4590442;19;20007;-26
2023/07/27 01:02:01;;;;;;;4.93;3.25;;;14.90;99.90;;;;;;4589988;19;20519;-25
2023/07/27 01:03:34;;;;;;;4.20;3.05;;;14.90;99.90;;;;;;4590129;19;20006;-25
2023/07/27 01:05:06;;;;;;;4.43;3.13;;;15.00;99.90;;;;;;4589862;19;20064;-24
2023/07/27 01:06:39;;;;;;;5.50;3.47;;;14.90;99.90;;;;;;4589849;19;20475;-26
2023/07/27 01:08:11;;;;;;;4.22;3.00;;;14.90;99.90;;;;;;4589853;19;20006;-26
2023/07/27 01:09:42;;;;;;;4.47;3.42;;;14.90;99.90;;;;;;4590095;19;20010;-25
2023/07/27 01:11:19;;;;;;;;;;;14.90;99.90;;;;;;4590876;19;20022;-24
2023/07/27 01:13:01;;;;;;;5.82;3.88;;;14.90;99.90;;;;;;4590026;19;19918;-25
2023/07/27 01:14:56;;;;;;;4.72;3.13;;;14.80;99.90;;;;;;4589861;19;20034;-24
2023/07/27 01:16:49;;;;;;;4.45;3.03;;;14.80;99.90;;;;;;4589470;19;20516;-25
2023/07/27 01:18:38;;;;;;;4.90;3.10;;;14.80;99.90;;;;;;4589691;19;20014;-24
2023/07/27 01:20:34;;;;;;;4.72;3.38;;;14.80;99.90;;;;;;4589776;19;20014;-25
2023/07/27 01:22:32;;;;;;;4.70;3.47;;;14.80;99.90;;;;;;4590057;19;20132;-25
2023/07/27 01:24:19;;;;;;;4.80;3.85;;;14.80;99.90;;;;;;4589241;19;20053;-25
2023/07/27 01:26:19;;;;;;;6.13;3.85;;;14.70;99.90;;;;;;4589486;19;20523;-25
2023/07/27 01:28:23;;;;;;;4.50;3.30;;;14.70;99.90;;;;;;4589409;19;20010;-25
2023/07/27 01:30:15;;;;;;;5.28;3.83;;;14.70;99.90;;;;;;4588977;19;20024;-25
2023/07/27 01:31:46;;;;;;;5.40;3.55;;;14.70;99.90;;;;;;4589962;19;20010;-25
2023/07/27 01:33:22;;;;;;;5.00;3.50;;;14.70;99.90;;;;;;4588794;19;20014;-24
2023/07/27 01:34:57;;;;;;;5.57;3.63;;;14.70;99.90;;;;;;4589142;19;20015;-25
2023/07/27 01:36:31;;;;;;;4.78;3.58;;;14.70;99.90;;;;;;4588928;19;20018;-24
2023/07/27 01:38:03;;;;;;;5.28;4.07;;;14.70;99.90;;;;;;4588558;19;20014;-25
2023/07/27 01:39:42;;;;;;;5.22;4.25;;;14.70;99.90;;;;;;4588916;19;20035;-25
2023/07/27 01:41:14;;;;;;;6.70;4.10;;;14.70;99.90;;;;;;4589057;19;20022;-25
2023/07/27 01:42:45;;;;;;;5.90;4.05;;;14.70;99.90;;;;;;4589601;19;20179;-25
2023/07/27 01:44:18;;;;;;;6.32;4.25;;;14.60;99.90;;;;;;4589681;19;20011;-25
2023/07/27 01:45:50;;;;;;;5.00;3.47;;;14.60;99.90;;;;;;4587844;19;20366;-24
2023/07/27 01:47:21;;;;;;;5.90;4.05;;;14.60;99.90;;;;;;4588996;19;20010;-24
2023/07/27 01:48:54;;;;;;;5.50;4.00;;;14.60;99.90;;;;;;4589146;19;20399;-26
2023/07/27 01:50:28;;;;;;;5.65;4.28;;;14.60;99.90;;;;;;4589705;19;19999;-25
2023/07/27 01:52:00;;;;;;;5.68;4.03;;;14.60;99.90;;;;;;4588753;19;20018;-25
2023/07/27 01:53:33;;;;;;;5.35;4.03;;;14.60;99.90;;;;;;4588676;19;20011;-25
2023/07/27 01:55:05;;;;;;;5.03;3.75;;;14.60;99.90;;;;;;4589418;19;20002;-24
2023/07/27 01:56:37;;;;;;;5.35;4.20;;;14.50;99.90;;;;;;4588569;19;20006;-25
2023/07/27 01:58:09;;;;;;;6.47;4.10;;;14.50;99.90;;;;;;4588614;19;20017;-25
2023/07/27 01:59:42;;;;;;;4.78;3.55;;;14.50;99.90;;;;;;4588635;19;20027;-25
2023/07/27 02:01:15;;;;;;;5.07;3.88;;;14.50;99.90;;;;;;4588913;19;20040;-25
2023/07/27 02:02:48;;;;;;;8.00;4.82;;;14.50;99.90;;;;;;4588931;19;20007;-25
2023/07/27 02:04:19;;;;;;;7.28;4.82;;;14.50;99.90;;;;;;4588556;19;20495;-25
2023/07/27 02:06:00;;;;;;;6.75;4.20;;;14.40;99.90;;;;;;4588661;19;20010;-25
2023/07/27 02:07:38;;;;;;;6.10;4.70;;;14.40;99.90;;;;;;4588397;19;20038;-25
2023/07/27 02:09:13;;;;;;;6.03;4.25;;;14.40;99.90;;;;;;4588483;19;20006;-25
2023/07/27 02:10:50;;;;;;;6.00;4.30;;;14.40;99.90;;;;;;4586014;19;20018;-25
2023/07/27 02:12:26;;;;;;;6.57;4.50;;;14.40;99.90;;;;;;4588456;19;20014;-25
2023/07/27 02:14:18;;;;;;;6.53;4.45;;;14.40;99.90;;;;;;4589086;19;20416;-24
2023/07/27 02:16:22;;;;;;;6.03;4.57;;;14.40;99.90;;;;;;4588599;19;20006;-24
2023/07/27 02:17:58;;;;;;;6.18;4.30;;;14.40;99.90;;;;;;4587957;19;20066;-26
2023/07/27 02:19:32;;;;;;;5.53;4.10;;;14.40;99.90;;;;;;4588443;19;20070;-25
2023/07/27 02:21:05;;;;;;;6.53;4.50;;;14.40;99.90;;;;;;4588278;19;20014;-24
2023/07/27 02:22:37;;;;;;;6.82;4.55;;;14.40;99.90;;;;;;4588146;19;20352;-24
2023/07/27 02:24:08;;;;;;;7.53;4.82;;;14.40;99.90;;;;;;4588535;19;20022;-25
2023/07/27 02:25:41;;;;;;;5.18;3.58;;;14.40;99.90;;;;;;4588393;19;20023;-24
2023/07/27 02:27:13;;;;;;;6.05;4.53;;;14.40;99.90;;;;;;4588189;19;20068;-25
2023/07/27 02:28:47;;;;;;;5.57;4.32;;;14.40;99.90;;;;;;4588122;19;20006;-25
2023/07/27 02:30:18;;;;;;;6.13;4.45;;;14.40;99.90;;;;;;4588242;19;20470;-25
2023/07/27 02:31:51;;;;;;;6.25;4.60;;;14.40;99.90;;;;;;4588132;19;20002;-25
2023/07/27 02:33:24;;;;;;;5.70;4.07;;;14.40;99.90;;;;;;4588038;19;20026;-25
2023/07/27 02:34:56;;;;;;;;;;;14.30;99.90;;;;;;4589117;19;20018;-26
2023/07/27 02:36:27;;;;;;;6.15;4.40;;;14.30;99.90;;;;;;4587909;19;19914;-24
2023/07/27 02:38:01;;;;;;;5.53;4.50;;;14.30;99.90;;;;;;4587332;19;20002;-25
2023/07/27 02:39:33;;;;;;;5.97;4.22;;;14.30;99.90;;;;;;4588159;19;20070;-25
2023/07/27 02:41:04;;;;;;;5.75;4.38;;;14.30;99.90;;;;;;4588345;19;20080;-25
2023/07/27 02:42:35;;;;;;;5.80;4.63;;;14.30;99.90;;;;;;4588512;19;20066;-25
2023/07/27 02:44:07;;;;;;;6.32;4.65;;;14.30;99.90;;;;;;4587936;19;20074;-24
2023/07/27 02:45:39;;;;;;;5.75;4.40;;;14.30;99.90;;;;;;4587123;19;20015;-25
2023/07/27 02:47:12;;;;;;;5.78;4.15;;;14.30;99.90;;;;;;4588270;19;20010;-26
2023/07/27 02:48:44;;;;;;;5.63;4.28;;;14.20;99.90;;;;;;4588006;19;20018;-25
2023/07/27 02:50:16;;;;;;;5.80;4.40;;;14.20;99.90;;;;;;4587954;19;20460;-24
2023/07/27 02:51:49;;;;;;;7.68;5.15;;;14.20;99.90;;;;;;4587534;19;20482;-23
2023/07/27 02:53:22;;;;;;;5.00;3.77;;;14.20;99.90;;;;;;4587772;19;20022;-24
2023/07/27 02:54:53;;;;;;;7.00;4.35;;;14.20;99.90;;;;;;4588165;19;20011;-25
2023/07/27 02:56:25;;;;;;;6.25;4.50;;;14.20;99.90;;;;;;4588762;19;20361;-25
2023/07/27 02:57:57;;;;;;;5.53;3.90;;;14.20;99.90;;;;;;4589910;19;20026;-25
2023/07/27 02:59:29;;;;;;;6.00;4.43;;;14.20;99.90;;;;;;4589099;19;20015;-25
2023/07/27 03:01:02;;;;;;;6.53;4.32;;;14.20;99.90;;;;;;4589220;19;20006;-25
2023/07/27 03:02:37;;;;;;;4.80;3.70;;;14.20;99.90;;;;;;4589282;19;20093;-26
2023/07/27 03:04:10;;;;;;;7.07;4.60;;;14.10;99.90;;;;;;4589056;19;20364;-24
2023/07/27 03:05:41;;;;;;;5.00;3.80;;;14.20;99.90;;;;;;4589894;19;20028;-24
2023/07/27 03:07:13;;;;;;;6.40;4.80;;;14.20;99.90;;;;;;4589077;19;20463;-25
2023/07/27 03:08:45;;;;;;;6.68;4.80;;;14.20;99.90;;;;;;4589485;19;20015;-24
2023/07/27 03:10:16;;;;;;;6.80;4.72;;;14.20;99.90;;;;;;4588620;19;20006;-24
2023/07/27 03:11:49;;;;;;;8.10;6.35;;;14.10;99.90;;;;;;4589003;19;20014;-26
2023/07/27 03:13:23;;;;;;;6.75;5.00;;;14.10;99.90;;;;;;4589062;19;20022;-25
2023/07/27 03:14:56;;;;;;;6.70;5.18;;;14.10;99.90;;;;;;4588586;19;20024;-25
2023/07/27 03:16:28;;;;;;;8.68;4.97;;;14.10;99.90;;;;;;4588659;19;20018;-24
2023/07/27 03:18:01;;;;;;;7.70;5.43;;;14.10;99.90;;;;;;4589834;19;20006;-24
2023/07/27 03:19:34;;;;;;;6.83;5.40;;;14.10;99.90;;;;;;4589569;19;20015;-25
2023/07/27 03:21:07;;;;;;;8.60;5.97;;;14.10;99.90;;;;;;4588620;19;20010;-24
2023/07/27 03:22:39;;;;;;;7.63;6.43;;;14.00;99.90;;;;;;4593852;19;20013;-24
2023/07/27 03:24:16;;;;;;;7.80;4.85;;;14.00;99.90;;;;;;4594837;19;20003;-25
2023/07/27 03:25:49;;;;;;;6.20;4.70;;;14.00;99.90;;;;;;4594160;19;20022;-25
2023/07/27 03:27:24;;;;;;;7.70;5.82;;;14.00;99.90;;;;;;4594023;19;20298;-26
2023/07/27 03:28:55;;;;;;;8.52;5.95;;;14.00;99.90;;;;;;4594650;19;20370;-25
2023/07/27 03:30:28;;;;;;;7.85;5.88;;;14.00;99.90;;;;;;4594677;19;20015;-25
2023/07/27 03:32:01;;;;;;;8.33;6.10;;;14.00;99.90;;;;;;4594042;19;20035;-25
2023/07/27 03:33:34;;;;;;;7.78;5.30;;;14.00;99.90;;;;;;4594303;19;20025;-25
2023/07/27 03:35:06;;;;;;;;;;;14.00;99.90;;;;;;4594829;19;20007;-25
2023/07/27 03:36:37;;;;;;;7.55;6.03;;;14.00;99.90;;;;;;4593240;19;19919;-25
2023/07/27 03:38:10;;;;;;;7.38;5.15;;;14.10;99.90;;;;;;4591390;19;20021;-26
2023/07/27 03:39:42;;;;;;;7.18;5.38;;;14.00;99.90;;;;;;4593455;19;20027;-25
2023/07/27 03:41:15;;;;;;;7.30;5.03;;;14.00;99.90;;;;;;4594380;19;20002;-25
2023/07/27 03:42:46;;;;;;;7.03;5.18;;;14.00;99.90;;;;;;4593571;19;20019;-25
2023/07/27 03:44:17;;;;;;;;;;;14.00;99.90;;;;;;4594204;19;20036;-25
2023/07/27 03:45:52;;;;;;;7.23;5.67;;;14.00;99.90;;;;;;4591314;19;19915;-25
2023/07/27 03:47:23;;;;;;;7.70;5.60;;;14.00;99.90;;;;;;4594023;19;20435;-25
2023/07/27 03:48:55;;;;;;;8.77;5.80;;;14.10;99.90;;;;;;4594480;19;20242;-25
2023/07/27 03:50:28;;;;;;;6.87;5.17;;;14.10;99.90;;;;;;4592610;19;20137;-24
2023/07/27 03:51:59;;;;;;;7.18;6.00;;;14.10;99.90;;;;;;4593740;19;20014;-25
2023/07/27 03:53:31;;;;;;;7.20;5.80;;;14.10;99.90;;;;;;4592639;19;20043;-26
2023/07/27 03:55:03;;;;;;;10.90;5.75;;;14.10;99.90;;;;;;4593346;19;20018;-24
2023/07/27 03:56:36;;;;;;;8.40;6.07;;;14.10;99.90;;;;;;4593164;19;20018;-24
2023/07/27 03:58:07;;;;;;;9.05;6.60;;;14.10;99.90;;;;;;4593759;19;20031;-25
2023/07/27 03:59:40;;;;;;;8.50;6.20;;;14.10;99.90;;;;;;4593722;19;20366;-24
2023/07/27 04:01:11;;;;;;;7.53;5.65;;;14.20;99.90;;;;;;4593466;19;20010;-23
2023/07/27 04:02:42;;;;;;;7.93;5.18;;;14.10;99.90;;;;;;4593770;19;20030;-25
2023/07/27 04:04:16;;;;;;;8.55;6.00;;;14.10;99.90;;;;;;4593558;19;20463;-25
2023/07/27 04:05:49;;;;;;;6.23;4.70;;;14.10;99.90;;;;;;4593952;19;20039;-25
2023/07/27 04:07:23;;;;;;;8.70;5.90;;;14.00;99.90;;;;;;4591948;19;20015;-25
2023/07/27 04:08:55;;;;;;;8.23;6.00;;;14.00;99.90;;;;;;4592773;19;20017;-25
2023/07/27 04:10:32;;;;;;;7.10;4.93;;;14.00;99.90;;;;;;4593422;19;20482;-24
2023/07/27 04:12:03;;;;;;;7.03;4.75;;;14.00;99.90;;;;;;4592806;19;20002;-24
2023/07/27 04:13:37;;;;;;;7.07;5.20;;;14.00;99.90;;;;;;4592872;19;20014;-25
2023/07/27 04:15:10;;;;;;;5.80;4.83;;;14.10;99.90;;;;;;4592374;19;20011;-24
2023/07/27 04:16:41;;;;;;;5.95;4.28;;;14.10;99.90;;;;;;4592592;19;20478;-24
2023/07/27 04:18:13;;;;;;;5.78;4.65;;;14.00;99.90;;;;;;4593755;19;20309;-25
2023/07/27 04:19:45;;;;;;;8.07;4.53;;;14.10;99.90;;;;;;4591850;19;20018;-25
2023/07/27 04:21:17;;;;;;;5.18;4.53;;;14.00;99.90;;;;;;4592542;19;20018;-24
2023/07/27 04:22:49;;;;;;;7.47;4.70;;;14.10;99.90;;;;;;4591975;19;20006;-24
2023/07/27 04:24:21;;;;;;;7.63;5.38;;;14.10;99.90;;;;;;4592685;19;20367;-24
2023/07/27 04:25:53;;;;;;;7.80;5.45;;;14.10;99.90;;;;;;4591768;19;20011;-24
2023/07/27 04:27:25;;;;;;;9.67;5.90;;;14.20;99.90;;;;;;4592165;19;20014;-25
2023/07/27 04:28:56;;;;;;;7.63;5.47;;;14.20;99.90;;;;;;4592559;19;20011;-25
2023/07/27 04:30:29;;;;;;;6.82;5.18;;;14.20;99.90;;;;;;4592353;19;20470;-24
2023/07/27 04:32:00;;;;;;;7.05;5.80;;;14.20;99.90;;;;;;4591786;19;20017;-24
2023/07/27 04:33:31;;;;;;;9.27;5.70;;;14.20;99.90;;;;;;4590249;19;20011;-25
2023/07/27 04:35:04;;;;;;;7.05;4.95;;;14.30;99.90;;;;;;4593735;19;20366;-24
2023/07/27 04:36:36;;;;;;;5.77;4.97;;;14.30;99.90;;;;;;4592431;19;20015;-25
2023/07/27 04:38:07;;;;;;;7.13;5.00;;;14.40;99.90;;;;;;4591705;19;20446;-24
2023/07/27 04:39:40;;;;;;;7.17;4.40;;;14.40;99.90;;;;;;4591473;19;20426;-25
2023/07/27 04:41:11;;;;;;;6.40;4.35;;;14.40;99.90;;;;;;4590668;19;20070;-26
2023/07/27 04:42:43;;;;;;;6.60;4.63;;;14.40;99.90;;;;;;4591166;19;20018;-24
2023/07/27 04:44:15;;;;;;;7.45;5.20;;;14.40;99.90;;;;;;4592470;19;20416;-25
2023/07/27 04:45:46;;;;;;;7.05;5.13;;;14.50;99.90;;;;;;4591410;19;20022;-24
2023/07/27 04:47:18;;;;;;;6.10;4.45;;;14.60;99.90;;;;;;4592758;19;20070;-24
2023/07/27 04:48:49;;;;;;;5.95;4.47;;;14.60;99.90;;;;;;4592712;19;20030;-25
2023/07/27 04:50:22;;;;;;;6.75;4.63;;;14.60;99.90;;;;;;4591334;19;20397;-25
2023/07/27 04:51:53;;;;;;;8.40;4.90;;;14.60;99.90;;;;;;4592620;19;20013;-24
2023/07/27 04:53:24;;;;;;;6.45;4.47;;;14.70;99.90;;;;;;4592791;19;20022;-24
2023/07/27 04:54:56;;;;;;;5.90;4.22;;;14.70;99.90;;;;;;4592617;19;20007;-25
2023/07/27 04:56:27;;;;;;;7.20;3.92;;;14.70;99.90;;;;;;4591372;19;20502;-23
2023/07/27 04:57:59;;;;;;;5.63;4.13;;;14.80;99.90;;;;;;4590259;19;20007;-25
2023/07/27 04:59:31;;;;;;;6.13;4.32;;;14.80;99.90;;;;;;4591744;19;20029;-24
2023/07/27 05:01:02;;;;;;;6.43;4.68;;;14.80;99.90;;;;;;4591516;19;20019;-24
2023/07/27 05:02:34;;;;;;;;;;;14.80;99.90;;;;;;4593158;19;20010;-25
2023/07/27 05:04:07;;;;;;;6.50;4.30;;;14.90;99.90;;;;;;4592888;19;20221;-26
2023/07/27 05:05:43;;;;;;;7.78;4.97;;;14.90;99.90;;;;;;4592154;19;20010;-25
2023/07/27 05:07:16;;;;;;;6.38;4.80;;;14.90;99.90;;;;;;4593271;19;20023;-23
2023/07/27 05:08:49;;;;;;;6.88;4.95;;;15.00;99.90;;;;;;4591593;19;20011;-25
2023/07/27 05:10:23;;;;;;;7.03;5.20;;;15.00;99.90;;;;;;4592216;19;20033;-25
2023/07/27 05:11:55;;;;;;;6.65;5.22;;;15.00;99.90;;;;;;4590808;19;20479;-25
2023/07/27 05:13:29;;;;;;;6.07;4.63;;;15.00;99.90;;;;;;4591181;19;20033;-24
2023/07/27 05:15:00;;;;;;;7.03;5.35;;;15.10;99.90;;;;;;4591967;19;20467;-25
2023/07/27 05:16:31;;;;;;;;;;;15.10;99.90;;;;;;4593528;19;20074;-26
2023/07/27 05:18:04;;;;;;;6.95;4.22;;;15.10;99.90;;;;;;4588714;19;19925;-25
2023/07/27 05:19:36;;;;;;;7.80;4.75;;;15.10;99.90;;;;;;4590657;19;20011;-25
2023/07/27 05:21:08;;;;;;;5.70;4.22;;;15.20;99.90;;;;;;4590699;19;20379;-25
2023/07/27 05:22:41;;;;;;;7.15;4.63;;;15.20;99.90;;;;;;4591604;19;20010;-24
2023/07/27 05:24:12;;;;;;;5.97;4.00;;;15.30;99.90;;;;;;4590556;19;20077;-25
2023/07/27 05:25:44;;;;;;;;;;;15.60;99.90;;;;;;4592519;19;20022;-26
2023/07/27 05:27:15;;;;;;;7.57;4.85;;;15.90;99.90;;;;;;4590864;19;20415;-29
2023/07/27 05:28:48;;;;;;;6.47;3.80;;;16.20;99.90;;;;;;4591397;19;20016;-28
2023/07/27 05:30:21;;;;;;;6.45;4.00;;;16.40;99.90;;;;;;4592044;19;20014;-25
2023/07/27 05:31:53;;;;;;;8.43;4.72;;;16.70;99.90;;;;;;4591844;19;20018;-30
2023/07/27 05:33:25;;;;;;;6.50;3.95;;;16.90;99.90;;;;;;4590057;19;20011;-27
2023/07/27 05:34:56;;;;;;;5.93;3.88;;;17.10;99.90;;;;;;4591141;19;20015;-28
2023/07/27 05:36:28;;;;;;;8.38;4.07;;;17.30;99.90;;;;;;4591799;19;20042;-28
2023/07/27 05:37:59;;;;;;;7.47;3.90;;;17.40;99.90;;;;;;4590574;19;20011;-26
2023/07/27 05:39:30;;;;;;;7.80;4.65;;;17.50;99.90;;;;;;4590569;19;20012;-27
2023/07/27 05:41:02;;;;;;;8.27;5.43;;;17.70;99.90;;;;;;4590317;19;20018;-29
2023/07/27 05:42:33;;;;;;;8.75;5.35;;;17.80;99.90;;;;;;4590234;19;20037;-23
2023/07/27 05:44:05;;;;;;;9.13;3.92;;;17.80;99.90;;;;;;4590813;19;20459;-28
2023/07/27 05:45:38;;;;;;;6.53;3.70;;;17.90;99.90;;;;;;4589566;19;20022;-24
2023/07/27 05:47:11;;;;;;;7.20;3.88;;;18.10;99.90;;;;;;4591540;19;20078;-27
2023/07/27 05:48:46;;;;;;;7.70;3.80;;;18.10;99.90;;;;;;4591671;19;20019;-23
2023/07/27 05:50:19;;;;;;;7.55;3.58;;;18.20;99.90;;;;;;4590809;19;20129;-24
2023/07/27 05:51:52;;;;;;;5.75;3.47;;;18.30;99.90;;;;;;4590617;19;20006;-24
2023/07/27 05:53:24;;;;;;;7.80;3.53;;;18.30;99.90;;;;;;4590045;19;20021;-29
2023/07/27 05:54:59;;;;;;;7.43;4.80;;;18.40;99.90;;;;;;4590369;19;20039;-22
2023/07/27 05:56:31;;;;;;;8.55;3.25;;;18.50;99.90;;;;;;4590241;19;20003;-26
2023/07/27 05:58:06;;;;;;;7.82;3.70;;;18.50;99.90;;;;;;4589894;19;20018;-24
2023/07/27 05:59:37;;;;;;;6.68;3.53;;;18.50;99.90;;;;;;4589834;19;20018;-24
2023/07/27 06:01:09;;;;;;;5.53;3.40;;;18.60;99.90;;;;;;4591250;19;20007;-24
2023/07/27 06:02:41;;;;;;;5.18;3.38;;;18.60;99.90;;;;;;4593500;19;20014;-24
2023/07/27 06:04:13;;;;;;;6.43;3.90;;;18.70;99.90;;;;;;4591949;19;20455;-22
2023/07/27 06:05:44;;;;;;;6.07;3.35;;;18.70;99.90;;;;;;4592270;19;20015;-24
2023/07/27 06:07:17;;;;;;;9.45;3.72;;;18.80;99.90;;;;;;4593181;19;20044;-24
2023/07/27 06:08:49;;;;;;;9.27;3.70;;;18.80;99.90;;;;;;4593291;19;20459;-28
2023/07/27 06:10:21;;;;;;;6.45;3.25;;;18.90;99.90;;;;;;4593149;19;20006;-28
2023/07/27 06:11:53;;;;;;;6.50;3.42;;;19.00;99.90;;;;;;4592791;19;20010;-30
2023/07/27 06:13:25;;;;;;;6.47;3.15;;;19.00;99.90;;;;;;4592619;19;20014;-29
2023/07/27 06:14:57;;;;;;;6.03;3.28;;;19.10;99.90;;;;;;4591737;19;20018;-31
2023/07/27 06:16:30;;;;;;;6.32;3.50;;;19.20;99.90;;;;;;4590742;19;20325;-25
2023/07/27 06:18:04;;;;;;;6.20;3.03;;;19.20;99.90;;;;;;4590480;19;20014;-26
2023/07/27 06:19:35;;;;;;;5.90;3.13;;;19.30;99.90;;;;;;4590323;19;20015;-27
2023/07/27 06:21:12;;;;;;;6.78;3.80;;;19.30;99.90;;;;;;4589993;19;20037;-24
2023/07/27 06:22:46;;;;;;;6.35;3.33;;;19.30;99.90;;;;;;4590868;19;20010;-28
2023/07/27 06:24:41;;;;;;;7.05;3.40;;;19.40;99.90;;;;;;4591062;19;20014;-25
2023/07/27 06:26:20;;;;;;;7.55;3.13;;;19.40;99.90;;;;;;4591480;19;20074;-24
2023/07/27 06:27:54;;;;;;;6.57;3.80;;;19.40;99.90;;;;;;4589410;19;20088;-27
2023/07/27 06:29:26;;;;;;;7.05;4.05;;;19.40;99.90;;;;;;4592364;19;20018;-24
2023/07/27 06:31:00;;;;;;;4.40;3.03;;;19.50;99.90;;;;;;4592628;19;20031;-28
2023/07/27 06:32:33;;;;;;;5.50;3.03;;;19.50;99.90;;;;;;4592647;19;20047;-24
2023/07/27 06:34:04;;;;;;;4.80;3.03;;;19.60;99.90;;;;;;4589785;19;20381;-26
2023/07/27 06:35:36;;;;;;;5.38;3.30;;;19.70;99.90;;;;;;4589418;19;20006;-23
2023/07/27 06:37:09;;;;;;;5.38;2.97;;;19.80;99.90;;;;;;4590380;19;20010;-26
2023/07/27 06:38:40;;;;;;;4.00;2.72;;;19.80;99.90;;;;;;4589971;19;20357;-24
2023/07/27 06:40:14;;;;;;;4.65;2.78;;;19.90;99.90;;;;;;4589435;19;20035;-23
2023/07/27 06:41:46;;;;;;;4.45;2.88;;;19.90;99.90;;;;;;4589854;19;20046;-25
2023/07/27 06:43:25;;;;;;;3.83;2.85;;;20.10;99.90;;;;;;4587846;19;20106;-23
2023/07/27 06:45:02;;;;;;;4.28;2.30;;;20.20;99.90;;;;;;4588533;19;20014;-27
2023/07/27 06:46:33;;;;;;;4.20;2.60;;;20.20;99.90;;;;;;4589709;19;19999;-24
2023/07/27 06:48:06;;;;;;;3.42;2.30;;;20.40;99.90;;;;;;4589710;19;20032;-24
2023/07/27 06:49:37;;;;;;;;;;;20.50;99.90;;;;;;4588385;19;20036;-25
2023/07/27 06:51:11;;;;;;;4.85;3.00;;;20.50;99.90;;;;;;4588574;19;19919;-26
2023/07/27 06:52:42;;;;;;;;;;;20.50;99.90;;;;;;4591055;19;20033;-24
2023/07/27 06:54:14;;;;;;;6.45;3.00;;;20.50;99.90;;;;;;4590081;19;20347;-24
2023/07/27 06:55:45;;;;;;;4.20;2.70;;;20.40;99.90;;;;;;4589947;19;20359;-24
2023/07/27 06:57:17;;;;;;;4.22;2.42;;;20.40;99.90;;;;;;4592423;19;20015;-24
2023/07/27 06:58:49;;;;;;;;;;;20.40;99.90;;;;;;4595572;19;20006;-24
2023/07/27 07:00:20;;;;;;;4.63;2.60;;;20.40;99.90;;;;;;4596523;19;19914;-26
2023/07/27 07:01:54;;;;;;;3.80;2.20;;;20.50;99.90;;;;;;4597103;19;20013;-27
2023/07/27 07:03:25;;;;;;;4.65;2.38;;;20.40;99.90;;;;;;4596844;19;20015;-24
2023/07/27 07:04:58;;;;;;;4.93;2.83;;;20.40;99.90;;;;;;4597069;19;20011;-25
2023/07/27 07:06:31;;;;;;;3.65;2.30;;;20.40;99.90;;;;;;4596494;19;20010;-24
2023/07/27 07:08:03;;;;;;;4.65;2.60;;;20.40;99.90;;;;;;4595776;19;20017;-24
2023/07/27 07:09:35;;;;;;;3.88;2.28;;;20.40;99.90;;;;;;4596226;19;20015;-29
2023/07/27 07:11:08;;;;;;;4.03;2.40;;;20.40;99.90;;;;;;4596898;19;20078;-24
2023/07/27 07:12:40;;;;;;;3.03;2.20;;;20.40;99.90;;;;;;4594142;19;20344;-23
2023/07/27 07:14:12;;;;;;;4.95;2.58;;;20.40;99.90;;;;;;4593867;19;20410;-24
2023/07/27 07:15:45;;;;;;;4.88;2.63;;;20.40;99.90;;;;;;4596261;19;20329;-24
2023/07/27 07:17:16;;;;;;;10.75;3.08;;;20.40;99.90;;;;;;4594760;19;20018;-24
2023/07/27 07:18:48;;;;;;;4.15;2.03;;;20.50;99.90;;;;;;4594465;19;20014;-27
2023/07/27 07:20:20;;;;;;;4.20;2.20;;;20.50;99.90;;;;;;4595659;19;20033;-24
2023/07/27 07:21:52;;;;;;;3.25;1.98;;;20.60;99.90;;;;;;4594769;19;20434;-30
2023/07/27 07:23:23;;;;;;;;;;;20.70;99.90;;;;;;4595080;19;20041;-24
2023/07/27 07:24:56;;;;;;;9.60;2.20;;;20.90;99.90;;;;;;4594151;19;19962;-24
2023/07/27 07:26:28;;;;;;;4.72;2.05;;;20.80;99.90;;;;;;4592489;19;20015;-24
2023/07/27 07:27:59;;;;;;;3.28;1.90;;;20.80;99.90;;;;;;4593611;19;20009;-26
2023/07/27 07:29:37;;;;;;;7.47;2.30;;;20.70;99.90;;;;;;4593279;19;20010;-26
2023/07/27 07:31:26;;;;;;;3.25;2.17;;;20.70;99.90;;;;;;4593848;19;20028;-24
2023/07/27 07:33:01;;;;;;;3.30;1.73;;;20.70;99.90;;;;;;4593375;19;20355;-28
2023/07/27 07:34:35;;;;;;;4.78;1.80;;;20.90;99.90;;;;;;4593703;19;20018;-23
2023/07/27 07:36:07;;;;;;;4.30;2.90;;;20.90;99.90;;;;;;4594271;19;20394;-24
2023/07/27 07:37:38;;;;;;;4.80;2.47;;;20.80;99.90;;;;;;4592609;19;20344;-25
2023/07/27 07:39:11;;;;;;;3.78;2.17;;;20.70;99.90;;;;;;4593883;19;20011;-26
2023/07/27 07:40:46;;;;;;;3.53;2.30;;;20.70;99.90;;;;;;4592714;19;20465;-24
2023/07/27 07:42:18;;;;;;;5.03;2.20;;;20.70;99.90;;;;;;4592799;19;20010;-24
2023/07/27 07:44:10;;;;;;;4.07;2.10;;;20.70;99.90;;;;;;4591742;19;20352;-31
2023/07/27 07:45:54;;;;;;;5.10;2.80;;;20.70;99.90;;;;;;4591140;19;20006;-24
2023/07/27 07:47:32;;;;;;;3.30;1.90;;;20.70;99.90;;;;;;4593538;19;20066;-24
2023/07/27 07:49:03;;;;;;;3.75;1.90;;;20.80;99.90;;;;;;4593326;19;20001;-28
2023/07/27 07:50:37;;;;;;;3.75;2.13;;;20.90;99.90;;;;;;4593341;19;20007;-28
2023/07/27 07:52:09;;;;;;;3.67;1.83;;;20.90;99.90;;;;;;4592379;19;20010;-24
2023/07/27 07:53:41;;;;;;;4.22;1.90;;;20.90;99.90;;;;;;4592777;19;20082;-24
2023/07/27 07:55:13;;;;;;;4.15;2.30;;;20.80;99.90;;;;;;4593077;19;20009;-28
2023/07/27 07:56:47;;;;;;;4.15;2.20;;;20.80;99.90;;;;;;4592264;19;20009;-25
2023/07/27 07:58:31;;;;;;;3.25;1.83;;;20.80;99.90;;;;;;4592585;19;20082;-28
2023/07/27 08:00:06;;;;;;;3.58;1.73;;;20.80;99.90;;;;;;4593624;19;20015;-28
2023/07/27 08:01:42;;;;;;;4.22;1.92;;;20.70;99.90;;;;;;4592417;19;20349;-24
2023/07/27 08:03:19;;;;;;;4.15;1.73;;;20.70;99.90;;;;;;4592975;19;20074;-25
2023/07/27 08:04:55;;;;;;;2.83;1.83;;;20.70;99.90;;;;;;4592880;19;20011;-28
2023/07/27 08:06:27;;;;;;;3.03;1.85;;;20.70;99.90;;;;;;4593485;19;20021;-28
2023/07/27 08:08:00;;;;;;;;;;;20.60;99.90;;;;;;4593414;19;20006;-26
2023/07/27 08:09:33;;;;;;;2.88;1.73;;;20.60;99.90;;;;;;4593443;19;19922;-24